sensor_id;sensor_type;location;lat;lon;timestamp;P1;durP1;ratioP1;P2;durP2;ratioP2
28335;SDS011;15592;53.656;7.276;2023-08-24T00:00:52;2.63;;;2.38;;
28335;SDS011;15592;53.656;7.276;2023-08-24T00:03:18;3.25;;;2.30;;
28335;SDS011;15592;53.656;7.276;2023-08-24T00:05:47;2.67;;;2.35;;
28335;SDS011;15592;53.656;7.276;2023-08-24T00:08:12;3.38;;;2.30;;
28335;SDS011;15592;53.656;7.276;2023-08-24T00:10:38;3.80;;;2.63;;
28335;SDS011;15592;53.656;7.276;2023-08-24T00:13:04;3.65;;;2.72;;
28335;SDS011;15592;53.656;7.276;2023-08-24T00:15:30;4.05;;;3.00;;
28335;SDS011;15592;53.656;7.276;2023-08-24T00:17:55;3.30;;;2.70;;
28335;SDS011;15592;53.656;7.276;2023-08-24T00:20:21;3.03;;;2.50;;
28335;SDS011;15592;53.656;7.276;2023-08-24T00:22:48;2.92;;;1.92;;
28335;SDS011;15592;53.656;7.276;2023-08-24T00:25:13;2.20;;;2.03;;
28335;SDS011;15592;53.656;7.276;2023-08-24T00:27:39;2.00;;;1.80;;
28335;SDS011;15592;53.656;7.276;2023-08-24T00:30:06;1.95;;;1.83;;
28335;SDS011;15592;53.656;7.276;2023-08-24T00:32:33;2.08;;;1.88;;
28335;SDS011;15592;53.656;7.276;2023-08-24T00:35:00;2.47;;;1.90;;
28335;SDS011;15592;53.656;7.276;2023-08-24T00:37:27;2.20;;;1.98;;
28335;SDS011;15592;53.656;7.276;2023-08-24T00:39:53;2.30;;;2.00;;
28335;SDS011;15592;53.656;7.276;2023-08-24T00:42:20;2.80;;;2.17;;
28335;SDS011;15592;53.656;7.276;2023-08-24T00:44:47;2.83;;;2.42;;
28335;SDS011;15592;53.656;7.276;2023-08-24T00:47:14;2.47;;;2.28;;
28335;SDS011;15592;53.656;7.276;2023-08-24T00:49:41;3.25;;;2.47;;
28335;SDS011;15592;53.656;7.276;2023-08-24T00:52:06;3.20;;;2.90;;
28335;SDS011;15592;53.656;7.276;2023-08-24T00:54:33;2.88;;;2.17;;
28335;SDS011;15592;53.656;7.276;2023-08-24T00:56:59;4.85;;;2.50;;
28335;SDS011;15592;53.656;7.276;2023-08-24T00:59:25;2.80;;;2.50;;
28335;SDS011;15592;53.656;7.276;2023-08-24T01:01:51;3.42;;;2.35;;
28335;SDS011;15592;53.656;7.276;2023-08-24T01:04:17;2.50;;;2.30;;
28335;SDS011;15592;53.656;7.276;2023-08-24T01:06:43;3.35;;;2.60;;
28335;SDS011;15592;53.656;7.276;2023-08-24T01:09:09;3.05;;;2.70;;
28335;SDS011;15592;53.656;7.276;2023-08-24T01:17:07;2.17;;;1.98;;
28335;SDS011;15592;53.656;7.276;2023-08-24T01:19:38;3.05;;;2.47;;
28335;SDS011;15592;53.656;7.276;2023-08-24T01:24:45;2.25;;;2.00;;
28335;SDS011;15592;53.656;7.276;2023-08-24T01:27:16;2.38;;;2.03;;
28335;SDS011;15592;53.656;7.276;2023-08-24T01:29:44;4.13;;;2.55;;
28335;SDS011;15592;53.656;7.276;2023-08-24T01:32:10;3.05;;;2.50;;
28335;SDS011;15592;53.656;7.276;2023-08-24T01:34:38;5.57;;;2.70;;
28335;SDS011;15592;53.656;7.276;2023-08-24T01:37:07;3.92;;;2.60;;
28335;SDS011;15592;53.656;7.276;2023-08-24T01:42:05;3.50;;;2.55;;
28335;SDS011;15592;53.656;7.276;2023-08-24T01:47:03;3.00;;;2.70;;
28335;SDS011;15592;53.656;7.276;2023-08-24T01:49:30;3.75;;;2.60;;
28335;SDS011;15592;53.656;7.276;2023-08-24T01:51:57;2.95;;;2.50;;
28335;SDS011;15592;53.656;7.276;2023-08-24T01:54:24;3.28;;;2.70;;
28335;SDS011;15592;53.656;7.276;2023-08-24T01:56:50;4.38;;;2.60;;
28335;SDS011;15592;53.656;7.276;2023-08-24T01:59:15;3.85;;;2.88;;
28335;SDS011;15592;53.656;7.276;2023-08-24T02:01:41;3.25;;;2.53;;
28335;SDS011;15592;53.656;7.276;2023-08-24T02:04:06;4.93;;;2.85;;
28335;SDS011;15592;53.656;7.276;2023-08-24T02:06:32;3.95;;;2.75;;
28335;SDS011;15592;53.656;7.276;2023-08-24T02:08:58;2.60;;;2.20;;
28335;SDS011;15592;53.656;7.276;2023-08-24T02:11:23;3.50;;;2.60;;
28335;SDS011;15592;53.656;7.276;2023-08-24T02:13:49;2.70;;;2.40;;
28335;SDS011;15592;53.656;7.276;2023-08-24T02:16:15;3.47;;;2.40;;
28335;SDS011;15592;53.656;7.276;2023-08-24T02:18:41;3.95;;;2.35;;
28335;SDS011;15592;53.656;7.276;2023-08-24T02:21:10;3.35;;;2.22;;
28335;SDS011;15592;53.656;7.276;2023-08-24T02:23:37;2.75;;;2.40;;
28335;SDS011;15592;53.656;7.276;2023-08-24T02:26:03;3.55;;;2.42;;
28335;SDS011;15592;53.656;7.276;2023-08-24T02:28:29;2.97;;;2.17;;
28335;SDS011;15592;53.656;7.276;2023-08-24T02:30:59;2.97;;;2.25;;
28335;SDS011;15592;53.656;7.276;2023-08-24T02:33:26;3.53;;;2.40;;
28335;SDS011;15592;53.656;7.276;2023-08-24T02:35:52;2.65;;;2.00;;
28335;SDS011;15592;53.656;7.276;2023-08-24T02:38:17;2.55;;;2.30;;
28335;SDS011;15592;53.656;7.276;2023-08-24T02:40:43;2.40;;;2.20;;
28335;SDS011;15592;53.656;7.276;2023-08-24T02:43:09;2.13;;;1.90;;
28335;SDS011;15592;53.656;7.276;2023-08-24T02:45:35;3.63;;;2.35;;
28335;SDS011;15592;53.656;7.276;2023-08-24T02:48:00;2.40;;;2.20;;
28335;SDS011;15592;53.656;7.276;2023-08-24T02:50:26;3.25;;;2.38;;
28335;SDS011;15592;53.656;7.276;2023-08-24T02:52:51;3.08;;;2.33;;
28335;SDS011;15592;53.656;7.276;2023-08-24T02:55:17;3.15;;;2.42;;
28335;SDS011;15592;53.656;7.276;2023-08-24T02:57:43;3.85;;;2.63;;
28335;SDS011;15592;53.656;7.276;2023-08-24T03:00:08;3.88;;;2.55;;
28335;SDS011;15592;53.656;7.276;2023-08-24T03:02:35;5.05;;;3.08;;
28335;SDS011;15592;53.656;7.276;2023-08-24T03:05:01;3.15;;;2.63;;
28335;SDS011;15592;53.656;7.276;2023-08-24T03:07:27;4.60;;;2.67;;
28335;SDS011;15592;53.656;7.276;2023-08-24T03:09:53;3.45;;;2.70;;
28335;SDS011;15592;53.656;7.276;2023-08-24T03:12:18;5.45;;;2.95;;
28335;SDS011;15592;53.656;7.276;2023-08-24T03:14:44;3.55;;;2.28;;
28335;SDS011;15592;53.656;7.276;2023-08-24T03:17:10;2.50;;;2.30;;
28335;SDS011;15592;53.656;7.276;2023-08-24T03:19:35;3.15;;;2.40;;
28335;SDS011;15592;53.656;7.276;2023-08-24T03:22:01;3.85;;;2.67;;
28335;SDS011;15592;53.656;7.276;2023-08-24T03:24:27;2.40;;;2.20;;
28335;SDS011;15592;53.656;7.276;2023-08-24T03:26:53;3.60;;;2.67;;
28335;SDS011;15592;53.656;7.276;2023-08-24T03:29:18;2.80;;;2.60;;
28335;SDS011;15592;53.656;7.276;2023-08-24T03:31:44;3.67;;;2.65;;
28335;SDS011;15592;53.656;7.276;2023-08-24T03:34:10;3.70;;;2.75;;
28335;SDS011;15592;53.656;7.276;2023-08-24T03:36:35;4.78;;;3.10;;
28335;SDS011;15592;53.656;7.276;2023-08-24T03:39:03;5.57;;;3.25;;
28335;SDS011;15592;53.656;7.276;2023-08-24T03:41:28;3.30;;;3.00;;
28335;SDS011;15592;53.656;7.276;2023-08-24T03:43:54;3.85;;;3.15;;
28335;SDS011;15592;53.656;7.276;2023-08-24T03:46:20;4.43;;;3.30;;
28335;SDS011;15592;53.656;7.276;2023-08-24T03:48:45;4.82;;;3.22;;
28335;SDS011;15592;53.656;7.276;2023-08-24T03:51:11;4.10;;;3.00;;
28335;SDS011;15592;53.656;7.276;2023-08-24T03:53:37;4.25;;;2.80;;
28335;SDS011;15592;53.656;7.276;2023-08-24T03:56:03;5.82;;;3.53;;
28335;SDS011;15592;53.656;7.276;2023-08-24T03:58:29;4.07;;;3.10;;
28335;SDS011;15592;53.656;7.276;2023-08-24T04:00:54;5.18;;;3.15;;
28335;SDS011;15592;53.656;7.276;2023-08-24T04:03:20;4.65;;;3.30;;
28335;SDS011;15592;53.656;7.276;2023-08-24T04:05:46;3.88;;;3.15;;
28335;SDS011;15592;53.656;7.276;2023-08-24T04:08:12;3.92;;;3.17;;
28335;SDS011;15592;53.656;7.276;2023-08-24T04:10:37;2.92;;;2.58;;
28335;SDS011;15592;53.656;7.276;2023-08-24T04:13:03;3.22;;;2.92;;
28335;SDS011;15592;53.656;7.276;2023-08-24T04:15:29;4.20;;;3.15;;
28335;SDS011;15592;53.656;7.276;2023-08-24T04:17:55;3.47;;;3.00;;
28335;SDS011;15592;53.656;7.276;2023-08-24T04:20:21;4.38;;;3.00;;
28335;SDS011;15592;53.656;7.276;2023-08-24T04:22:47;5.28;;;3.40;;
28335;SDS011;15592;53.656;7.276;2023-08-24T04:25:13;4.07;;;3.22;;
28335;SDS011;15592;53.656;7.276;2023-08-24T04:27:38;3.15;;;2.85;;
28335;SDS011;15592;53.656;7.276;2023-08-24T04:30:04;2.97;;;2.67;;
28335;SDS011;15592;53.656;7.276;2023-08-24T04:32:31;3.35;;;2.85;;
28335;SDS011;15592;53.656;7.276;2023-08-24T04:34:57;2.83;;;2.55;;
28335;SDS011;15592;53.656;7.276;2023-08-24T04:37:23;3.10;;;2.50;;
28335;SDS011;15592;53.656;7.276;2023-08-24T04:39:49;2.80;;;2.53;;
28335;SDS011;15592;53.656;7.276;2023-08-24T04:42:14;3.40;;;3.10;;
28335;SDS011;15592;53.656;7.276;2023-08-24T04:44:40;4.15;;;3.10;;
28335;SDS011;15592;53.656;7.276;2023-08-24T04:47:06;3.90;;;3.13;;
28335;SDS011;15592;53.656;7.276;2023-08-24T04:49:32;4.30;;;3.40;;
28335;SDS011;15592;53.656;7.276;2023-08-24T04:51:58;3.15;;;2.85;;
28335;SDS011;15592;53.656;7.276;2023-08-24T04:54:23;3.10;;;2.80;;
28335;SDS011;15592;53.656;7.276;2023-08-24T04:56:49;3.20;;;2.90;;
28335;SDS011;15592;53.656;7.276;2023-08-24T04:59:14;2.53;;;2.33;;
28335;SDS011;15592;53.656;7.276;2023-08-24T05:01:40;2.80;;;2.60;;
28335;SDS011;15592;53.656;7.276;2023-08-24T05:04:06;2.45;;;2.25;;
28335;SDS011;15592;53.656;7.276;2023-08-24T05:06:31;2.75;;;2.53;;
28335;SDS011;15592;53.656;7.276;2023-08-24T05:08:57;2.30;;;2.10;;
28335;SDS011;15592;53.656;7.276;2023-08-24T05:11:23;3.50;;;2.60;;
28335;SDS011;15592;53.656;7.276;2023-08-24T05:13:54;3.58;;;2.50;;
28335;SDS011;15592;53.656;7.276;2023-08-24T05:16:20;3.00;;;2.67;;
28335;SDS011;15592;53.656;7.276;2023-08-24T05:18:46;3.58;;;3.15;;
28335;SDS011;15592;53.656;7.276;2023-08-24T05:21:12;2.67;;;2.47;;
28335;SDS011;15592;53.656;7.276;2023-08-24T05:23:38;2.58;;;2.38;;
28335;SDS011;15592;53.656;7.276;2023-08-24T05:26:03;2.35;;;2.10;;
28335;SDS011;15592;53.656;7.276;2023-08-24T05:28:29;3.08;;;2.20;;
28335;SDS011;15592;53.656;7.276;2023-08-24T05:30:56;2.25;;;2.05;;
28335;SDS011;15592;53.656;7.276;2023-08-24T05:33:22;2.40;;;2.20;;
28335;SDS011;15592;53.656;7.276;2023-08-24T05:35:49;2.60;;;2.08;;
28335;SDS011;15592;53.656;7.276;2023-08-24T05:38:15;2.33;;;2.13;;
28335;SDS011;15592;53.656;7.276;2023-08-24T05:40:50;2.55;;;2.35;;
28335;SDS011;15592;53.656;7.276;2023-08-24T05:43:16;3.03;;;2.72;;
28335;SDS011;15592;53.656;7.276;2023-08-24T05:45:42;2.80;;;2.53;;
28335;SDS011;15592;53.656;7.276;2023-08-24T05:48:09;2.53;;;2.33;;
28335;SDS011;15592;53.656;7.276;2023-08-24T05:50:47;2.63;;;2.20;;
28335;SDS011;15592;53.656;7.276;2023-08-24T05:53:13;2.50;;;2.30;;
28335;SDS011;15592;53.656;7.276;2023-08-24T05:55:47;2.40;;;2.20;;
28335;SDS011;15592;53.656;7.276;2023-08-24T05:58:16;2.13;;;1.95;;
28335;SDS011;15592;53.656;7.276;2023-08-24T06:00:42;2.83;;;2.33;;
28335;SDS011;15592;53.656;7.276;2023-08-24T06:03:07;3.30;;;2.60;;
28335;SDS011;15592;53.656;7.276;2023-08-24T06:05:33;3.40;;;2.53;;
28335;SDS011;15592;53.656;7.276;2023-08-24T06:07:59;2.85;;;2.45;;
28335;SDS011;15592;53.656;7.276;2023-08-24T06:10:24;2.92;;;2.35;;
28335;SDS011;15592;53.656;7.276;2023-08-24T06:12:51;2.85;;;2.40;;
28335;SDS011;15592;53.656;7.276;2023-08-24T06:15:17;2.60;;;2.40;;
28335;SDS011;15592;53.656;7.276;2023-08-24T06:17:44;3.08;;;2.78;;
28335;SDS011;15592;53.656;7.276;2023-08-24T06:20:12;3.58;;;2.70;;
28335;SDS011;15592;53.656;7.276;2023-08-24T06:22:38;3.20;;;2.70;;
28335;SDS011;15592;53.656;7.276;2023-08-24T06:25:03;3.60;;;3.30;;
28335;SDS011;15592;53.656;7.276;2023-08-24T06:27:30;3.25;;;2.95;;
28335;SDS011;15592;53.656;7.276;2023-08-24T06:29:55;5.55;;;3.58;;
28335;SDS011;15592;53.656;7.276;2023-08-24T06:32:21;7.28;;;4.07;;
28335;SDS011;15592;53.656;7.276;2023-08-24T06:34:46;6.20;;;4.38;;
28335;SDS011;15592;53.656;7.276;2023-08-24T06:37:12;5.18;;;4.00;;
28335;SDS011;15592;53.656;7.276;2023-08-24T06:39:38;7.07;;;5.07;;
28335;SDS011;15592;53.656;7.276;2023-08-24T06:42:03;7.47;;;5.00;;
28335;SDS011;15592;53.656;7.276;2023-08-24T06:44:29;6.22;;;4.53;;
28335;SDS011;15592;53.656;7.276;2023-08-24T06:46:55;5.18;;;4.65;;
28335;SDS011;15592;53.656;7.276;2023-08-24T06:49:20;6.82;;;4.63;;
28335;SDS011;15592;53.656;7.276;2023-08-24T06:51:46;5.43;;;4.55;;
28335;SDS011;15592;53.656;7.276;2023-08-24T06:54:12;5.55;;;4.25;;
28335;SDS011;15592;53.656;7.276;2023-08-24T06:56:39;6.95;;;4.10;;
28335;SDS011;15592;53.656;7.276;2023-08-24T06:59:05;4.20;;;3.50;;
28335;SDS011;15592;53.656;7.276;2023-08-24T07:01:30;5.57;;;3.97;;
28335;SDS011;15592;53.656;7.276;2023-08-24T07:03:56;4.47;;;3.60;;
28335;SDS011;15592;53.656;7.276;2023-08-24T07:06:22;3.90;;;3.13;;
28335;SDS011;15592;53.656;7.276;2023-08-24T07:08:48;4.95;;;4.18;;
28335;SDS011;15592;53.656;7.276;2023-08-24T07:11:14;4.90;;;3.53;;
28335;SDS011;15592;53.656;7.276;2023-08-24T07:13:40;6.10;;;3.80;;
28335;SDS011;15592;53.656;7.276;2023-08-24T07:16:05;4.22;;;3.80;;
28335;SDS011;15592;53.656;7.276;2023-08-24T07:18:32;4.80;;;3.35;;
28335;SDS011;15592;53.656;7.276;2023-08-24T07:20:58;3.83;;;3.03;;
28335;SDS011;15592;53.656;7.276;2023-08-24T07:23:24;4.78;;;3.78;;
28335;SDS011;15592;53.656;7.276;2023-08-24T07:25:49;4.00;;;3.05;;
28335;SDS011;15592;53.656;7.276;2023-08-24T07:28:15;4.20;;;3.33;;
28335;SDS011;15592;53.656;7.276;2023-08-24T07:30:40;3.88;;;3.28;;
28335;SDS011;15592;53.656;7.276;2023-08-24T07:33:06;4.05;;;3.10;;
28335;SDS011;15592;53.656;7.276;2023-08-24T07:35:32;5.90;;;2.95;;
28335;SDS011;15592;53.656;7.276;2023-08-24T07:37:57;3.15;;;2.60;;
28335;SDS011;15592;53.656;7.276;2023-08-24T07:40:23;5.43;;;2.88;;
28335;SDS011;15592;53.656;7.276;2023-08-24T07:42:50;3.53;;;2.72;;
28335;SDS011;15592;53.656;7.276;2023-08-24T07:45:18;5.40;;;3.25;;
28335;SDS011;15592;53.656;7.276;2023-08-24T07:47:44;3.83;;;2.50;;
28335;SDS011;15592;53.656;7.276;2023-08-24T07:50:10;4.85;;;2.97;;
28335;SDS011;15592;53.656;7.276;2023-08-24T07:52:37;2.92;;;2.53;;
28335;SDS011;15592;53.656;7.276;2023-08-24T07:55:04;3.70;;;2.72;;
28335;SDS011;15592;53.656;7.276;2023-08-24T07:57:32;3.58;;;2.38;;
28335;SDS011;15592;53.656;7.276;2023-08-24T08:00:01;3.47;;;2.65;;
28335;SDS011;15592;53.656;7.276;2023-08-24T08:02:28;3.13;;;2.35;;
28335;SDS011;15592;53.656;7.276;2023-08-24T08:04:57;5.35;;;3.13;;
28335;SDS011;15592;53.656;7.276;2023-08-24T08:07:23;5.10;;;2.95;;
28335;SDS011;15592;53.656;7.276;2023-08-24T08:09:49;2.97;;;2.67;;
28335;SDS011;15592;53.656;7.276;2023-08-24T08:12:15;2.88;;;2.40;;
28335;SDS011;15592;53.656;7.276;2023-08-24T08:14:41;4.05;;;2.53;;
28335;SDS011;15592;53.656;7.276;2023-08-24T08:17:06;3.03;;;2.50;;
28335;SDS011;15592;53.656;7.276;2023-08-24T08:19:32;3.17;;;2.47;;
28335;SDS011;15592;53.656;7.276;2023-08-24T08:22:00;5.07;;;2.60;;
28335;SDS011;15592;53.656;7.276;2023-08-24T08:24:26;3.17;;;2.42;;
28335;SDS011;15592;53.656;7.276;2023-08-24T08:26:52;2.58;;;2.28;;
28335;SDS011;15592;53.656;7.276;2023-08-24T08:29:17;5.00;;;2.70;;
28335;SDS011;15592;53.656;7.276;2023-08-24T08:31:43;3.75;;;2.60;;
28335;SDS011;15592;53.656;7.276;2023-08-24T08:34:09;3.58;;;2.40;;
28335;SDS011;15592;53.656;7.276;2023-08-24T08:36:34;3.45;;;2.30;;
28335;SDS011;15592;53.656;7.276;2023-08-24T08:39:00;5.60;;;2.28;;
28335;SDS011;15592;53.656;7.276;2023-08-24T08:41:27;2.30;;;2.00;;
28335;SDS011;15592;53.656;7.276;2023-08-24T08:43:55;5.05;;;3.08;;
28335;SDS011;15592;53.656;7.276;2023-08-24T08:46:21;5.47;;;3.00;;
28335;SDS011;15592;53.656;7.276;2023-08-24T08:48:51;5.50;;;2.75;;
28335;SDS011;15592;53.656;7.276;2023-08-24T08:51:17;3.50;;;2.40;;
28335;SDS011;15592;53.656;7.276;2023-08-24T08:53:44;3.75;;;2.63;;
28335;SDS011;15592;53.656;7.276;2023-08-24T08:56:09;5.82;;;2.50;;
28335;SDS011;15592;53.656;7.276;2023-08-24T08:58:36;3.35;;;2.50;;
28335;SDS011;15592;53.656;7.276;2023-08-24T09:01:02;7.70;;;2.70;;
28335;SDS011;15592;53.656;7.276;2023-08-24T09:03:29;4.25;;;2.33;;
28335;SDS011;15592;53.656;7.276;2023-08-24T09:05:57;2.55;;;2.35;;
28335;SDS011;15592;53.656;7.276;2023-08-24T09:08:23;2.85;;;2.40;;
28335;SDS011;15592;53.656;7.276;2023-08-24T09:10:51;3.00;;;2.20;;
28335;SDS011;15592;53.656;7.276;2023-08-24T09:13:17;3.10;;;2.35;;
28335;SDS011;15592;53.656;7.276;2023-08-24T09:15:42;3.28;;;2.30;;
28335;SDS011;15592;53.656;7.276;2023-08-24T09:18:08;3.72;;;2.20;;
28335;SDS011;15592;53.656;7.276;2023-08-24T09:20:34;4.70;;;2.38;;
28335;SDS011;15592;53.656;7.276;2023-08-24T09:23:22;3.85;;;2.10;;
28335;SDS011;15592;53.656;7.276;2023-08-24T09:25:47;1.95;;;1.75;;
28335;SDS011;15592;53.656;7.276;2023-08-24T09:28:13;2.47;;;1.80;;
28335;SDS011;15592;53.656;7.276;2023-08-24T09:30:42;1.70;;;1.60;;
28335;SDS011;15592;53.656;7.276;2023-08-24T09:33:10;4.32;;;1.90;;
28335;SDS011;15592;53.656;7.276;2023-08-24T09:35:36;2.65;;;1.90;;
28335;SDS011;15592;53.656;7.276;2023-08-24T09:38:35;3.22;;;2.00;;
28335;SDS011;15592;53.656;7.276;2023-08-24T09:40:54;3.53;;;2.25;;
28335;SDS011;15592;53.656;7.276;2023-08-24T09:43:21;3.28;;;2.15;;
28335;SDS011;15592;53.656;7.276;2023-08-24T09:45:48;3.03;;;2.17;;
28335;SDS011;15592;53.656;7.276;2023-08-24T09:48:17;3.03;;;2.08;;
28335;SDS011;15592;53.656;7.276;2023-08-24T09:50:45;3.63;;;2.05;;
28335;SDS011;15592;53.656;7.276;2023-08-24T09:53:18;2.40;;;1.92;;
28335;SDS011;15592;53.656;7.276;2023-08-24T09:58:41;2.58;;;1.80;;
28335;SDS011;15592;53.656;7.276;2023-08-24T10:01:08;2.00;;;1.77;;
28335;SDS011;15592;53.656;7.276;2023-08-24T10:03:34;2.55;;;2.10;;
28335;SDS011;15592;53.656;7.276;2023-08-24T10:06:05;2.20;;;2.00;;
28335;SDS011;15592;53.656;7.276;2023-08-24T10:11:02;3.05;;;2.10;;
28335;SDS011;15592;53.656;7.276;2023-08-24T10:16:09;3.92;;;2.00;;
28335;SDS011;15592;53.656;7.276;2023-08-24T10:18:39;6.43;;;2.30;;
28335;SDS011;15592;53.656;7.276;2023-08-24T10:21:05;3.88;;;1.95;;
28335;SDS011;15592;53.656;7.276;2023-08-24T10:23:33;2.65;;;2.22;;
28335;SDS011;15592;53.656;7.276;2023-08-24T10:26:02;5.25;;;2.63;;
28335;SDS011;15592;53.656;7.276;2023-08-24T10:28:29;2.63;;;1.98;;
28335;SDS011;15592;53.656;7.276;2023-08-24T10:30:58;3.13;;;2.30;;
28335;SDS011;15592;53.656;7.276;2023-08-24T10:33:25;3.53;;;2.20;;
28335;SDS011;15592;53.656;7.276;2023-08-24T10:35:52;4.55;;;2.30;;
28335;SDS011;15592;53.656;7.276;2023-08-24T10:38:28;4.05;;;2.15;;
28335;SDS011;15592;53.656;7.276;2023-08-24T10:41:01;2.47;;;1.98;;
28335;SDS011;15592;53.656;7.276;2023-08-24T10:43:38;3.88;;;2.00;;
28335;SDS011;15592;53.656;7.276;2023-08-24T10:46:04;2.50;;;2.30;;
28335;SDS011;15592;53.656;7.276;2023-08-24T10:56:24;2.75;;;2.28;;
28335;SDS011;15592;53.656;7.276;2023-08-24T10:59:10;3.42;;;2.53;;
28335;SDS011;15592;53.656;7.276;2023-08-24T11:01:43;2.97;;;2.27;;
28335;SDS011;15592;53.656;7.276;2023-08-24T11:04:19;2.50;;;2.10;;
28335;SDS011;15592;53.656;7.276;2023-08-24T11:06:51;3.85;;;2.40;;
28335;SDS011;15592;53.656;7.276;2023-08-24T11:09:18;4.95;;;2.50;;
28335;SDS011;15592;53.656;7.276;2023-08-24T11:12:01;3.45;;;2.80;;
28335;SDS011;15592;53.656;7.276;2023-08-24T11:14:28;3.47;;;2.20;;
28335;SDS011;15592;53.656;7.276;2023-08-24T11:16:59;3.00;;;2.22;;
28335;SDS011;15592;53.656;7.276;2023-08-24T11:19:27;4.07;;;2.60;;
28335;SDS011;15592;53.656;7.276;2023-08-24T11:21:53;3.05;;;2.45;;
28335;SDS011;15592;53.656;7.276;2023-08-24T11:24:18;3.33;;;2.30;;
28335;SDS011;15592;53.656;7.276;2023-08-24T11:26:45;3.30;;;2.40;;
28335;SDS011;15592;53.656;7.276;2023-08-24T11:29:12;4.35;;;2.50;;
28335;SDS011;15592;53.656;7.276;2023-08-24T11:31:38;3.35;;;2.33;;
28335;SDS011;15592;53.656;7.276;2023-08-24T11:34:05;2.85;;;2.00;;
28335;SDS011;15592;53.656;7.276;2023-08-24T11:36:40;2.95;;;2.20;;
28335;SDS011;15592;53.656;7.276;2023-08-24T11:39:15;3.80;;;2.50;;
28335;SDS011;15592;53.656;7.276;2023-08-24T11:42:06;2.75;;;2.10;;
28335;SDS011;15592;53.656;7.276;2023-08-24T11:44:49;2.38;;;2.00;;
28335;SDS011;15592;53.656;7.276;2023-08-24T11:47:16;2.20;;;2.00;;
28335;SDS011;15592;53.656;7.276;2023-08-24T11:49:45;3.42;;;2.22;;
28335;SDS011;15592;53.656;7.276;2023-08-24T11:52:11;3.15;;;2.20;;
28335;SDS011;15592;53.656;7.276;2023-08-24T11:54:40;3.08;;;2.00;;
28335;SDS011;15592;53.656;7.276;2023-08-24T11:57:07;3.85;;;2.00;;
28335;SDS011;15592;53.656;7.276;2023-08-24T11:59:34;4.57;;;2.60;;
28335;SDS011;15592;53.656;7.276;2023-08-24T12:02:00;5.78;;;2.92;;
28335;SDS011;15592;53.656;7.276;2023-08-24T12:04:27;3.15;;;2.40;;
28335;SDS011;15592;53.656;7.276;2023-08-24T12:06:52;3.13;;;2.33;;
28335;SDS011;15592;53.656;7.276;2023-08-24T12:09:18;3.65;;;2.42;;
28335;SDS011;15592;53.656;7.276;2023-08-24T12:11:43;2.55;;;2.35;;
28335;SDS011;15592;53.656;7.276;2023-08-24T12:14:16;3.30;;;2.50;;
28335;SDS011;15592;53.656;7.276;2023-08-24T12:16:42;4.15;;;2.67;;
28335;SDS011;15592;53.656;7.276;2023-08-24T12:19:08;4.13;;;2.65;;
28335;SDS011;15592;53.656;7.276;2023-08-24T12:21:34;4.15;;;2.50;;
28335;SDS011;15592;53.656;7.276;2023-08-24T12:24:01;2.92;;;2.63;;
28335;SDS011;15592;53.656;7.276;2023-08-24T12:26:31;3.78;;;2.75;;
28335;SDS011;15592;53.656;7.276;2023-08-24T12:29:08;5.72;;;2.97;;
28335;SDS011;15592;53.656;7.276;2023-08-24T12:31:34;4.45;;;3.05;;
28335;SDS011;15592;53.656;7.276;2023-08-24T12:34:01;5.55;;;2.97;;
28335;SDS011;15592;53.656;7.276;2023-08-24T12:36:28;3.25;;;2.88;;
28335;SDS011;15592;53.656;7.276;2023-08-24T12:38:54;4.93;;;3.25;;
28335;SDS011;15592;53.656;7.276;2023-08-24T12:41:21;4.68;;;3.30;;
28335;SDS011;15592;53.656;7.276;2023-08-24T12:43:47;3.65;;;3.00;;
28335;SDS011;15592;53.656;7.276;2023-08-24T12:46:13;3.90;;;3.15;;
28335;SDS011;15592;53.656;7.276;2023-08-24T12:48:38;4.03;;;3.38;;
28335;SDS011;15592;53.656;7.276;2023-08-24T12:51:04;3.83;;;3.42;;
28335;SDS011;15592;53.656;7.276;2023-08-24T12:53:30;3.55;;;3.03;;
28335;SDS011;15592;53.656;7.276;2023-08-24T12:55:55;3.95;;;2.95;;
28335;SDS011;15592;53.656;7.276;2023-08-24T12:58:21;5.00;;;3.78;;
28335;SDS011;15592;53.656;7.276;2023-08-24T13:00:47;5.07;;;3.67;;
28335;SDS011;15592;53.656;7.276;2023-08-24T13:03:13;5.07;;;3.75;;
28335;SDS011;15592;53.656;7.276;2023-08-24T13:05:39;7.10;;;3.55;;
28335;SDS011;15592;53.656;7.276;2023-08-24T13:08:05;5.47;;;3.90;;
28335;SDS011;15592;53.656;7.276;2023-08-24T13:10:30;6.43;;;3.95;;
28335;SDS011;15592;53.656;7.276;2023-08-24T13:12:56;4.90;;;3.63;;
28335;SDS011;15592;53.656;7.276;2023-08-24T13:15:22;4.85;;;3.55;;
28335;SDS011;15592;53.656;7.276;2023-08-24T13:17:47;5.75;;;3.85;;
28335;SDS011;15592;53.656;7.276;2023-08-24T13:20:13;4.07;;;3.47;;
28335;SDS011;15592;53.656;7.276;2023-08-24T13:22:39;3.47;;;3.13;;
28335;SDS011;15592;53.656;7.276;2023-08-24T13:25:04;4.28;;;3.65;;
28335;SDS011;15592;53.656;7.276;2023-08-24T13:27:30;4.82;;;3.17;;
28335;SDS011;15592;53.656;7.276;2023-08-24T13:29:59;5.82;;;3.50;;
28335;SDS011;15592;53.656;7.276;2023-08-24T13:32:25;5.00;;;3.53;;
28335;SDS011;15592;53.656;7.276;2023-08-24T13:34:51;4.90;;;3.78;;
28335;SDS011;15592;53.656;7.276;2023-08-24T13:37:17;4.35;;;3.95;;
28335;SDS011;15592;53.656;7.276;2023-08-24T13:39:43;5.57;;;3.92;;
28335;SDS011;15592;53.656;7.276;2023-08-24T13:42:09;5.28;;;4.00;;
28335;SDS011;15592;53.656;7.276;2023-08-24T13:47:10;5.25;;;3.97;;
28335;SDS011;15592;53.656;7.276;2023-08-24T13:49:35;5.10;;;4.20;;
28335;SDS011;15592;53.656;7.276;2023-08-24T13:52:01;6.38;;;4.38;;
28335;SDS011;15592;53.656;7.276;2023-08-24T13:54:27;5.45;;;4.22;;
28335;SDS011;15592;53.656;7.276;2023-08-24T13:56:53;7.22;;;4.65;;
28335;SDS011;15592;53.656;7.276;2023-08-24T13:59:36;5.25;;;4.30;;
28335;SDS011;15592;53.656;7.276;2023-08-24T14:02:02;4.93;;;4.07;;
28335;SDS011;15592;53.656;7.276;2023-08-24T14:04:29;4.00;;;3.60;;
28335;SDS011;15592;53.656;7.276;2023-08-24T14:06:54;5.20;;;4.00;;
28335;SDS011;15592;53.656;7.276;2023-08-24T14:09:20;4.22;;;3.80;;
28335;SDS011;15592;53.656;7.276;2023-08-24T14:15:13;4.20;;;3.80;;
28335;SDS011;15592;53.656;7.276;2023-08-24T14:27:42;4.40;;;3.78;;
28335;SDS011;15592;53.656;7.276;2023-08-24T14:30:07;3.90;;;3.50;;
28335;SDS011;15592;53.656;7.276;2023-08-24T14:32:33;4.35;;;3.53;;
28335;SDS011;15592;53.656;7.276;2023-08-24T14:38:27;3.67;;;3.33;;
28335;SDS011;15592;53.656;7.276;2023-08-24T14:40:53;3.42;;;3.10;;
28335;SDS011;15592;53.656;7.276;2023-08-24T14:43:19;4.70;;;3.60;;
28335;SDS011;15592;53.656;7.276;2023-08-24T14:45:45;4.22;;;3.80;;
28335;SDS011;15592;53.656;7.276;2023-08-24T14:48:11;3.65;;;3.33;;
28335;SDS011;15592;53.656;7.276;2023-08-24T14:50:38;3.78;;;3.38;;
28335;SDS011;15592;53.656;7.276;2023-08-24T14:53:12;4.40;;;4.00;;
28335;SDS011;15592;53.656;7.276;2023-08-24T14:55:41;5.63;;;5.13;;
28335;SDS011;15592;53.656;7.276;2023-08-24T14:58:10;6.28;;;5.00;;
28335;SDS011;15592;53.656;7.276;2023-08-24T15:00:38;5.20;;;4.70;;
28335;SDS011;15592;53.656;7.276;2023-08-24T15:03:07;5.40;;;4.55;;
28335;SDS011;15592;53.656;7.276;2023-08-24T15:05:37;5.53;;;4.60;;
28335;SDS011;15592;53.656;7.276;2023-08-24T15:08:07;5.53;;;4.95;;
28335;SDS011;15592;53.656;7.276;2023-08-24T15:10:33;5.03;;;4.53;;
28335;SDS011;15592;53.656;7.276;2023-08-24T15:12:58;5.82;;;4.50;;
28335;SDS011;15592;53.656;7.276;2023-08-24T15:15:24;4.68;;;4.28;;
28335;SDS011;15592;53.656;7.276;2023-08-24T15:20:48;5.90;;;5.30;;
28335;SDS011;15592;53.656;7.276;2023-08-24T15:23:24;5.15;;;4.57;;
28335;SDS011;15592;53.656;7.276;2023-08-24T15:25:55;6.20;;;5.60;;
28335;SDS011;15592;53.656;7.276;2023-08-24T15:28:44;5.30;;;4.80;;
28335;SDS011;15592;53.656;7.276;2023-08-24T15:31:39;5.95;;;5.38;;
28335;SDS011;15592;53.656;7.276;2023-08-24T15:34:05;7.68;;;5.22;;
28335;SDS011;15592;53.656;7.276;2023-08-24T15:36:31;6.18;;;5.57;;
28335;SDS011;15592;53.656;7.276;2023-08-24T15:38:57;5.60;;;5.00;;